sensor_id;sensor_type;location;lat;lon;timestamp;pressure;altitude;pressure_sealevel;temperature;humidity
62942;BME280;49042;47.318;19.874;2023-06-10T00:02:10;99995.34;;;16.90;100.00
62942;BME280;49042;47.318;19.874;2023-06-10T00:05:11;99988.34;;;16.86;100.00
62942;BME280;49042;47.318;19.874;2023-06-10T00:08:13;99988.34;;;16.85;100.00
62942;BME280;49042;47.318;19.874;2023-06-10T00:11:17;99979.63;;;16.53;100.00
62942;BME280;49042;47.318;19.874;2023-06-10T00:14:18;99986.63;;;16.62;100.00
62942;BME280;49042;47.318;19.874;2023-06-10T00:17:20;99982.28;;;16.61;100.00
62942;BME280;49042;47.318;19.874;2023-06-10T00:20:25;99976.09;;;16.74;100.00
62942;BME280;49042;47.318;19.874;2023-06-10T00:23:27;99973.44;;;16.79;100.00
62942;BME280;49042;47.318;19.874;2023-06-10T00:26:31;99975.22;;;16.69;100.00
62942;BME280;49042;47.318;19.874;2023-06-10T00:29:33;99969.87;;;16.94;100.00
62942;BME280;49042;47.318;19.874;2023-06-10T00:32:36;99977.81;;;16.88;100.00
62942;BME280;49042;47.318;19.874;2023-06-10T00:35:38;99971.69;;;16.79;100.00
62942;BME280;49042;47.318;19.874;2023-06-10T00:38:40;99979.63;;;16.75;100.00
62942;BME280;49042;47.318;19.874;2023-06-10T00:41:44;99974.31;;;16.81;100.00
62942;BME280;49042;47.318;19.874;2023-06-10T00:44:46;99976.09;;;16.74;100.00
62942;BME280;49042;47.318;19.874;2023-06-10T00:47:48;99977.84;;;16.72;100.00
62942;BME280;49042;47.318;19.874;2023-06-10T00:50:50;99980.47;;;16.75;100.00
62942;BME280;49042;47.318;19.874;2023-06-10T00:53:52;99983.09;;;16.88;100.00
62942;BME280;49042;47.318;19.874;2023-06-10T00:56:54;99980.47;;;16.80;100.00
62942;BME280;49042;47.318;19.874;2023-06-10T00:59:56;99981.34;;;16.68;100.00
62942;BME280;49042;47.318;19.874;2023-06-10T01:02:58;99984.84;;;16.79;100.00
62942;BME280;49042;47.318;19.874;2023-06-10T01:06:37;99982.25;;;16.64;100.00
62942;BME280;49042;47.318;19.874;2023-06-10T01:10:05;99979.59;;;16.72;100.00
62942;BME280;49042;47.318;19.874;2023-06-10T01:13:11;99981.34;;;16.80;100.00
62942;BME280;49042;47.318;19.874;2023-06-10T01:16:13;99976.97;;;16.78;100.00
62942;BME280;49042;47.318;19.874;2023-06-10T01:19:14;99977.84;;;16.77;100.00
62942;BME280;49042;47.318;19.874;2023-06-10T01:22:19;99979.59;;;16.72;100.00
62942;BME280;49042;47.318;19.874;2023-06-10T01:25:22;99976.09;;;16.58;100.00
62942;BME280;49042;47.318;19.874;2023-06-10T01:28:31;99984.00;;;16.74;100.00
62942;BME280;49042;47.318;19.874;2023-06-10T01:32:06;99976.97;;;16.70;100.00
62942;BME280;49042;47.318;19.874;2023-06-10T01:35:09;99973.44;;;16.73;100.00
62942;BME280;49042;47.318;19.874;2023-06-10T01:38:14;99977.84;;;16.78;100.00
62942;BME280;49042;47.318;19.874;2023-06-10T01:41:17;99974.31;;;16.79;100.00
62942;BME280;49042;47.318;19.874;2023-06-10T01:44:20;99980.47;;;16.80;100.00
62942;BME280;49042;47.318;19.874;2023-06-10T01:47:23;99976.97;;;16.73;100.00
62942;BME280;49042;47.318;19.874;2023-06-10T01:50:25;99984.91;;;16.53;100.00
62942;BME280;49042;47.318;19.874;2023-06-10T01:53:26;99980.50;;;16.58;100.00
62942;BME280;49042;47.318;19.874;2023-06-10T01:56:28;99977.00;;;16.43;100.00
62942;BME280;49042;47.318;19.874;2023-06-10T01:59:30;99972.63;;;16.39;100.00
62942;BME280;49042;47.318;19.874;2023-06-10T02:02:31;99970.84;;;16.36;100.00
62942;BME280;49042;47.318;19.874;2023-06-10T02:05:33;99969.97;;;16.47;100.00
62942;BME280;49042;47.318;19.874;2023-06-10T02:08:35;99972.63;;;16.53;100.00
62942;BME280;49042;47.318;19.874;2023-06-10T02:11:37;99971.72;;;16.56;100.00
62942;BME280;49042;47.318;19.874;2023-06-10T02:14:38;99976.16;;;16.43;100.00
62942;BME280;49042;47.318;19.874;2023-06-10T02:17:40;99963.87;;;16.35;100.00
62942;BME280;49042;47.318;19.874;2023-06-10T02:20:42;99964.75;;;16.39;100.00
62942;BME280;49042;47.318;19.874;2023-06-10T02:23:43;99971.75;;;16.29;100.00
62942;BME280;49042;47.318;19.874;2023-06-10T02:26:45;99973.50;;;16.22;100.00
62942;BME280;49042;47.318;19.874;2023-06-10T02:29:47;99972.63;;;16.30;100.00
62942;BME280;49042;47.318;19.874;2023-06-10T02:32:49;99974.38;;;16.23;100.00
62942;BME280;49042;47.318;19.874;2023-06-10T02:35:52;99970.00;;;16.30;100.00
62942;BME280;49042;47.318;19.874;2023-06-10T02:38:54;99976.13;;;16.22;100.00
62942;BME280;49042;47.318;19.874;2023-06-10T02:41:55;99970.84;;;16.25;100.00
62942;BME280;49042;47.318;19.874;2023-06-10T02:44:57;99967.38;;;16.23;100.00
62942;BME280;49042;47.318;19.874;2023-06-10T02:47:59;99971.75;;;16.31;100.00
62942;BME280;49042;47.318;19.874;2023-06-10T02:51:01;99967.38;;;16.23;100.00
62942;BME280;49042;47.318;19.874;2023-06-10T02:54:02;99965.59;;;16.30;100.00
62942;BME280;49042;47.318;19.874;2023-06-10T02:57:05;99975.28;;;16.28;100.00
62942;BME280;49042;47.318;19.874;2023-06-10T03:00:08;99969.13;;;16.24;100.00
62942;BME280;49042;47.318;19.874;2023-06-10T03:03:12;99975.25;;;16.23;100.00
62942;BME280;49042;47.318;19.874;2023-06-10T03:06:14;99969.13;;;16.21;100.00
62942;BME280;49042;47.318;19.874;2023-06-10T03:09:16;99973.50;;;16.24;100.00
62942;BME280;49042;47.318;19.874;2023-06-10T03:12:17;99979.66;;;16.31;100.00
62942;BME280;49042;47.318;19.874;2023-06-10T03:15:19;99981.38;;;16.33;100.00
62942;BME280;49042;47.318;19.874;2023-06-10T03:18:26;99980.53;;;16.25;100.00
62942;BME280;49042;47.318;19.874;2023-06-10T03:21:28;99981.41;;;16.49;100.00
62942;BME280;49042;47.318;19.874;2023-06-10T03:24:30;99990.16;;;16.54;100.00
62942;BME280;49042;47.318;19.874;2023-06-10T03:27:32;99984.88;;;16.54;100.00
62942;BME280;49042;47.318;19.874;2023-06-10T03:30:34;99996.31;;;16.50;100.00
62942;BME280;49042;47.318;19.874;2023-06-10T03:33:36;99992.78;;;16.56;100.00
62942;BME280;49042;47.318;19.874;2023-06-10T03:36:37;99993.66;;;16.59;100.00
62942;BME280;49042;47.318;19.874;2023-06-10T03:39:42;99993.66;;;16.63;100.00
62942;BME280;49042;47.318;19.874;2023-06-10T03:42:44;99990.16;;;16.56;100.00
62942;BME280;49042;47.318;19.874;2023-06-10T03:45:46;99993.66;;;16.61;100.00
62942;BME280;49042;47.318;19.874;2023-06-10T03:48:47;99999.78;;;16.76;100.00
62942;BME280;49042;47.318;19.874;2023-06-10T03:51:49;100000.66;;;16.68;100.00
62942;BME280;49042;47.318;19.874;2023-06-10T03:54:51;99999.78;;;16.65;100.00
62942;BME280;49042;47.318;19.874;2023-06-10T03:57:53;100000.63;;;16.92;100.00
62942;BME280;49042;47.318;19.874;2023-06-10T04:00:54;100003.28;;;16.84;100.00
62942;BME280;49042;47.318;19.874;2023-06-10T04:03:56;100003.22;;;17.00;100.00
62942;BME280;49042;47.318;19.874;2023-06-10T04:06:58;100000.59;;;17.00;100.00
62942;BME280;49042;47.318;19.874;2023-06-10T04:10:00;99991.84;;;16.98;100.00
62942;BME280;49042;47.318;19.874;2023-06-10T04:13:02;99996.22;;;16.99;100.00
62942;BME280;49042;47.318;19.874;2023-06-10T04:16:05;99991.75;;;17.18;100.00
62942;BME280;49042;47.318;19.874;2023-06-10T04:19:06;99995.28;;;17.16;100.00
62942;BME280;49042;47.318;19.874;2023-06-10T04:22:08;99991.78;;;17.13;100.00
62942;BME280;49042;47.318;19.874;2023-06-10T04:25:10;100005.84;;;17.09;100.00
62942;BME280;49042;47.318;19.874;2023-06-10T04:28:12;99999.69;;;17.10;100.00
62942;BME280;49042;47.318;19.874;2023-06-10T04:31:14;100001.44;;;17.15;100.00
62942;BME280;49042;47.318;19.874;2023-06-10T04:34:15;100004.91;;;17.37;100.00
62942;BME280;49042;47.318;19.874;2023-06-10T04:37:17;100014.59;;;17.33;100.00
62942;BME280;49042;47.318;19.874;2023-06-10T04:40:19;100013.66;;;17.44;100.00
62942;BME280;49042;47.318;19.874;2023-06-10T04:43:21;100011.88;;;17.52;100.00
62942;BME280;49042;47.318;19.874;2023-06-10T04:46:23;100019.78;;;17.49;100.00
62942;BME280;49042;47.318;19.874;2023-06-10T04:49:25;100021.56;;;17.39;100.00
62942;BME280;49042;47.318;19.874;2023-06-10T04:52:27;100015.34;;;17.62;100.00
62942;BME280;49042;47.318;19.874;2023-06-10T04:55:29;100013.53;;;17.68;100.00
62942;BME280;49042;47.318;19.874;2023-06-10T04:58:30;100018.84;;;17.60;100.00
62942;BME280;49042;47.318;19.874;2023-06-10T05:01:32;100017.06;;;17.63;100.00
62942;BME280;49042;47.318;19.874;2023-06-10T05:04:34;100015.31;;;17.65;100.00
62942;BME280;49042;47.318;19.874;2023-06-10T05:07:36;100006.47;;;17.76;100.00
62942;BME280;49042;47.318;19.874;2023-06-10T05:10:38;100013.37;;;17.97;100.00
62942;BME280;49042;47.318;19.874;2023-06-10T05:13:41;100019.63;;;17.79;100.00
62942;BME280;49042;47.318;19.874;2023-06-10T05:16:44;100015.97;;;18.05;100.00
62942;BME280;49042;47.318;19.874;2023-06-10T05:19:45;100014.09;;;18.18;100.00
62942;BME280;49042;47.318;19.874;2023-06-10T05:22:48;100018.50;;;18.19;100.00
62942;BME280;49042;47.318;19.874;2023-06-10T05:25:50;100021.09;;;18.29;100.00
62942;BME280;49042;47.318;19.874;2023-06-10T05:28:52;100026.16;;;18.52;100.00
62942;BME280;49042;47.318;19.874;2023-06-10T05:31:54;100024.28;;;18.69;100.00
62942;BME280;49042;47.318;19.874;2023-06-10T05:34:58;100024.38;;;18.56;100.00
62942;BME280;49042;47.318;19.874;2023-06-10T05:38:02;100024.69;;;19.12;100.00
62942;BME280;49042;47.318;19.874;2023-06-10T05:41:04;100017.38;;;19.39;100.00
62942;BME280;49042;47.318;19.874;2023-06-10T05:44:06;100017.59;;;19.22;100.00
62942;BME280;49042;47.318;19.874;2023-06-10T05:47:08;100019.94;;;19.45;100.00
62942;BME280;49042;47.318;19.874;2023-06-10T05:50:10;100025.69;;;19.01;100.00
62942;BME280;49042;47.318;19.874;2023-06-10T05:53:11;100022.75;;;19.31;100.00
62942;BME280;49042;47.318;19.874;2023-06-10T05:56:16;100027.50;;;18.99;100.00
62942;BME280;49042;47.318;19.874;2023-06-10T05:59:18;100021.22;;;19.11;100.00
62942;BME280;49042;47.318;19.874;2023-06-10T06:02:20;100025.50;;;19.20;100.00
62942;BME280;49042;47.318;19.874;2023-06-10T06:05:22;100024.53;;;19.31;100.00
62942;BME280;49042;47.318;19.874;2023-06-10T06:08:24;100019.19;;;19.34;100.00
62942;BME280;49042;47.318;19.874;2023-06-10T06:11:26;100017.59;;;19.22;100.00
62942;BME280;49042;47.318;19.874;2023-06-10T06:14:30;100018.84;;;19.64;100.00
62942;BME280;49042;47.318;19.874;2023-06-10T06:17:32;100008.03;;;19.79;100.00
62942;BME280;49042;47.318;19.874;2023-06-10T06:20:34;100006.19;;;19.83;100.00
62942;BME280;49042;47.318;19.874;2023-06-10T06:23:36;100011.53;;;20.42;100.00
62942;BME280;49042;47.318;19.874;2023-06-10T06:26:38;100012.69;;;20.74;100.00
62942;BME280;49042;47.318;19.874;2023-06-10T06:29:40;100011.59;;;20.37;100.00
62942;BME280;49042;47.318;19.874;2023-06-10T06:32:42;100008.62;;;19.99;100.00
62942;BME280;49042;47.318;19.874;2023-06-10T06:35:44;100022.19;;;20.37;100.00
62942;BME280;49042;47.318;19.874;2023-06-10T06:38:46;100013.87;;;20.00;100.00
62942;BME280;49042;47.318;19.874;2023-06-10T06:41:48;100022.38;;;19.63;100.00
62942;BME280;49042;47.318;19.874;2023-06-10T06:44:50;100027.88;;;19.44;100.00
62942;BME280;49042;47.318;19.874;2023-06-10T06:47:52;100023.78;;;19.89;100.00
62942;BME280;49042;47.318;19.874;2023-06-10T06:50:53;100020.88;;;19.43;100.00
62942;BME280;49042;47.318;19.874;2023-06-10T06:53:57;100030.72;;;19.28;100.00
62942;BME280;49042;47.318;19.874;2023-06-10T06:57:00;100033.56;;;19.09;100.00
62942;BME280;49042;47.318;19.874;2023-06-10T07:00:02;100026.22;;;20.03;100.00
62942;BME280;49042;47.318;19.874;2023-06-10T07:03:04;100030.91;;;19.85;100.00
62942;BME280;49042;47.318;19.874;2023-06-10T07:06:06;100033.56;;;20.44;100.00
62942;BME280;49042;47.318;19.874;2023-06-10T07:09:08;100028.16;;;19.92;100.00
62942;BME280;49042;47.318;19.874;2023-06-10T07:12:10;100034.00;;;20.12;100.00
62942;BME280;49042;47.318;19.874;2023-06-10T07:15:12;100032.34;;;20.05;100.00
62942;BME280;49042;47.318;19.874;2023-06-10T07:18:15;100041.84;;;20.22;100.00
62942;BME280;49042;47.318;19.874;2023-06-10T07:21:18;100036.44;;;19.66;100.00
62942;BME280;49042;47.318;19.874;2023-06-10T07:24:20;100034.22;;;19.97;100.00
62942;BME280;49042;47.318;19.874;2023-06-10T07:27:22;100036.59;;;20.19;100.00
62942;BME280;49042;47.318;19.874;2023-06-10T07:30:24;100035.66;;;20.77;100.00
62942;BME280;49042;47.318;19.874;2023-06-10T07:33:26;100038.44;;;21.17;100.00
62942;BME280;49042;47.318;19.874;2023-06-10T07:36:28;100029.75;;;21.55;100.00
62942;BME280;49042;47.318;19.874;2023-06-10T07:39:31;100038.84;;;20.44;100.00
62942;BME280;49042;47.318;19.874;2023-06-10T07:42:34;100032.31;;;20.65;100.00
62942;BME280;49042;47.318;19.874;2023-06-10T07:45:36;100027.44;;;20.40;100.00
62942;BME280;49042;47.318;19.874;2023-06-10T07:48:38;100037.91;;;20.48;100.00
62942;BME280;49042;47.318;19.874;2023-06-10T07:51:40;100038.44;;;20.69;100.00
62942;BME280;49042;47.318;19.874;2023-06-10T07:54:41;100028.94;;;21.51;100.00
62942;BME280;49042;47.318;19.874;2023-06-10T07:57:43;100032.16;;;22.07;100.00
62942;BME280;49042;47.318;19.874;2023-06-10T08:00:46;100039.19;;;21.68;100.00
62942;BME280;49042;47.318;19.874;2023-06-10T08:03:47;100040.50;;;21.90;100.00
62942;BME280;49042;47.318;19.874;2023-06-10T08:06:50;100043.38;;;21.37;100.00
62942;BME280;49042;47.318;19.874;2023-06-10T08:09:51;100044.41;;;21.30;100.00
62942;BME280;49042;47.318;19.874;2023-06-10T08:12:53;100038.22;;;22.12;100.00
62942;BME280;49042;47.318;19.874;2023-06-10T08:15:55;100037.22;;;21.77;100.00
62942;BME280;49042;47.318;19.874;2023-06-10T08:18:57;100033.97;;;22.05;100.00
62942;BME280;49042;47.318;19.874;2023-06-10T08:21:58;100032.16;;;22.44;100.00
62942;BME280;49042;47.318;19.874;2023-06-10T08:25:00;100029.16;;;22.21;100.00
62942;BME280;49042;47.318;19.874;2023-06-10T08:28:02;100024.94;;;22.49;100.00
62942;BME280;49042;47.318;19.874;2023-06-10T08:31:03;100032.56;;;22.98;100.00
62942;BME280;49042;47.318;19.874;2023-06-10T08:34:05;100033.09;;;22.78;100.00
62942;BME280;49042;47.318;19.874;2023-06-10T08:37:07;100019.81;;;22.78;100.00
62942;BME280;49042;47.318;19.874;2023-06-10T08:40:09;100025.28;;;23.05;100.00
62942;BME280;49042;47.318;19.874;2023-06-10T08:43:17;100027.72;;;22.79;100.00
62942;BME280;49042;47.318;19.874;2023-06-10T08:46:23;100029.94;;;22.62;100.00
62942;BME280;49042;47.318;19.874;2023-06-10T08:49:26;100021.91;;;22.28;100.00
62942;BME280;49042;47.318;19.874;2023-06-10T08:52:35;100015.88;;;22.21;100.00
62942;BME280;49042;47.318;19.874;2023-06-10T08:55:47;100019.28;;;22.27;100.00
62942;BME280;49042;47.318;19.874;2023-06-10T08:58:51;100014.41;;;22.09;100.00
62942;BME280;49042;47.318;19.874;2023-06-10T09:01:54;99998.25;;;23.51;100.00
62942;BME280;49042;47.318;19.874;2023-06-10T09:04:56;100004.59;;;23.78;100.00
62942;BME280;49042;47.318;19.874;2023-06-10T09:08:00;100011.00;;;23.40;100.00
62942;BME280;49042;47.318;19.874;2023-06-10T09:11:02;100003.63;;;25.13;100.00
62942;BME280;49042;47.318;19.874;2023-06-10T09:14:03;99998.78;;;25.94;94.14
62942;BME280;49042;47.318;19.874;2023-06-10T09:17:05;99997.59;;;25.32;100.00
62942;BME280;49042;47.318;19.874;2023-06-10T09:20:08;100005.88;;;24.75;100.00
62942;BME280;49042;47.318;19.874;2023-06-10T09:23:12;99997.16;;;28.50;77.85
62942;BME280;49042;47.318;19.874;2023-06-10T09:26:14;100000.22;;;27.68;77.94
62942;BME280;49042;47.318;19.874;2023-06-10T09:29:17;99997.28;;;28.29;76.29
62942;BME280;49042;47.318;19.874;2023-06-10T09:32:19;99996.34;;;29.83;67.77
62942;BME280;49042;47.318;19.874;2023-06-10T09:35:22;99991.56;;;31.25;56.29
62942;BME280;49042;47.318;19.874;2023-06-10T09:38:29;99997.62;;;30.39;56.10
62942;BME280;49042;47.318;19.874;2023-06-10T09:41:35;99987.09;;;29.40;60.60
62942;BME280;49042;47.318;19.874;2023-06-10T09:44:38;99984.38;;;26.21;82.93
62942;BME280;49042;47.318;19.874;2023-06-10T09:47:40;99990.38;;;30.56;61.61
62942;BME280;49042;47.318;19.874;2023-06-10T09:50:43;99987.63;;;31.16;52.81
62942;BME280;49042;47.318;19.874;2023-06-10T09:53:50;99985.56;;;26.35;76.15
62942;BME280;49042;47.318;19.874;2023-06-10T09:56:52;99993.66;;;27.36;74.03
62942;BME280;49042;47.318;19.874;2023-06-10T09:59:55;99981.00;;;27.97;70.99
62942;BME280;49042;47.318;19.874;2023-06-10T10:02:57;99984.28;;;30.07;60.39
62942;BME280;49042;47.318;19.874;2023-06-10T10:05:59;99982.94;;;28.30;65.67
62942;BME280;49042;47.318;19.874;2023-06-10T10:09:04;99981.13;;;26.13;74.74
62942;BME280;49042;47.318;19.874;2023-06-10T10:12:12;99972.47;;;25.38;86.10
62942;BME280;49042;47.318;19.874;2023-06-10T10:15:16;99974.44;;;24.59;100.00
62942;BME280;49042;47.318;19.874;2023-06-10T10:18:19;99983.63;;;24.23;100.00
62942;BME280;49042;47.318;19.874;2023-06-10T10:21:35;99975.88;;;23.88;100.00
62942;BME280;49042;47.318;19.874;2023-06-10T10:24:42;99985.09;;;23.15;100.00
62942;BME280;49042;47.318;19.874;2023-06-10T10:31:03;99969.41;;;22.40;100.00
62942;BME280;49042;47.318;19.874;2023-06-10T10:34:13;99977.66;;;21.90;100.00
62942;BME280;49042;47.318;19.874;2023-06-10T10:37:17;99978.09;;;21.70;100.00
62942;BME280;49042;47.318;19.874;2023-06-10T10:40:21;99971.00;;;21.72;100.00
62942;BME280;49042;47.318;19.874;2023-06-10T10:43:23;99964.38;;;21.90;100.00
62942;BME280;49042;47.318;19.874;2023-06-10T10:46:25;99962.16;;;22.80;100.00
62942;BME280;49042;47.318;19.874;2023-06-10T10:49:27;99962.47;;;23.31;100.00
62942;BME280;49042;47.318;19.874;2023-06-10T10:56:07;99958.06;;;24.17;100.00
62942;BME280;49042;47.318;19.874;2023-06-10T10:59:11;99956.94;;;25.26;100.00
62942;BME280;49042;47.318;19.874;2023-06-10T11:05:43;99947.69;;;26.46;85.37
62942;BME280;49042;47.318;19.874;2023-06-10T11:08:47;99946.09;;;27.03;83.55
62942;BME280;49042;47.318;19.874;2023-06-10T11:11:49;99941.44;;;26.68;81.39
62942;BME280;49042;47.318;19.874;2023-06-10T11:14:55;99932.53;;;26.25;82.94
62942;BME280;49042;47.318;19.874;2023-06-10T11:21:16;99930.94;;;26.82;80.17
62942;BME280;49042;47.318;19.874;2023-06-10T11:24:18;99936.09;;;26.87;80.59
62942;BME280;49042;47.318;19.874;2023-06-10T11:27:21;99931.00;;;25.05;90.00
62942;BME280;49042;47.318;19.874;2023-06-10T11:30:25;99925.47;;;25.34;90.15
62942;BME280;49042;47.318;19.874;2023-06-10T11:33:27;99926.94;;;25.88;91.22
62942;BME280;49042;47.318;19.874;2023-06-10T11:36:31;99929.78;;;25.83;82.49
62942;BME280;49042;47.318;19.874;2023-06-10T11:39:33;99930.22;;;26.16;84.84
62942;BME280;49042;47.318;19.874;2023-06-10T11:42:40;99927.03;;;25.40;79.66
62942;BME280;49042;47.318;19.874;2023-06-10T11:45:41;99925.50;;;26.23;76.29
62942;BME280;49042;47.318;19.874;2023-06-10T11:48:54;99940.59;;;28.01;69.09
62942;BME280;49042;47.318;19.874;2023-06-10T11:51:56;99934.69;;;28.82;66.41
62942;BME280;49042;47.318;19.874;2023-06-10T11:54:58;99925.72;;;29.48;61.18
62942;BME280;49042;47.318;19.874;2023-06-10T11:57:59;99919.56;;;29.14;59.91
62942;BME280;49042;47.318;19.874;2023-06-10T12:01:01;99910.81;;;29.75;56.04
62942;BME280;49042;47.318;19.874;2023-06-10T12:04:08;99917.78;;;29.94;58.30
62942;BME280;49042;47.318;19.874;2023-06-10T12:07:17;99914.69;;;29.22;58.86
62942;BME280;49042;47.318;19.874;2023-06-10T12:10:20;99907.38;;;29.57;60.16
62942;BME280;49042;47.318;19.874;2023-06-10T12:13:28;99910.03;;;27.68;64.62
62942;BME280;49042;47.318;19.874;2023-06-10T12:16:30;99902.97;;;27.85;67.95
62942;BME280;49042;47.318;19.874;2023-06-10T12:19:38;99903.09;;;28.87;62.68
62942;BME280;49042;47.318;19.874;2023-06-10T12:22:43;99904.75;;;27.85;65.96
62942;BME280;49042;47.318;19.874;2023-06-10T12:25:55;99894.44;;;26.81;67.43
62942;BME280;49042;47.318;19.874;2023-06-10T12:28:57;99893.19;;;27.47;68.01
62942;BME280;49042;47.318;19.874;2023-06-10T12:32:03;99889.84;;;27.79;65.59
62942;BME280;49042;47.318;19.874;2023-06-10T12:35:08;99883.59;;;27.04;64.49
62942;BME280;49042;47.318;19.874;2023-06-10T12:38:10;99889.44;;;26.73;69.52
62942;BME280;49042;47.318;19.874;2023-06-10T12:41:13;99885.91;;;27.12;70.49
62942;BME280;49042;47.318;19.874;2023-06-10T12:44:15;99886.69;;;25.25;81.55
62942;BME280;49042;47.318;19.874;2023-06-10T12:47:17;99891.00;;;25.73;89.85
62942;BME280;49042;47.318;19.874;2023-06-10T12:50:19;99889.81;;;24.88;94.84
62942;BME280;49042;47.318;19.874;2023-06-10T12:53:22;99891.16;;;24.52;99.66
62942;BME280;49042;47.318;19.874;2023-06-10T12:56:30;99890.16;;;25.03;97.56
62942;BME280;49042;47.318;19.874;2023-06-10T12:59:32;99883.22;;;24.75;96.65
62942;BME280;49042;47.318;19.874;2023-06-10T13:02:34;99885.81;;;24.26;97.51
62942;BME280;49042;47.318;19.874;2023-06-10T13:05:36;99876.69;;;25.08;93.14
62942;BME280;49042;47.318;19.874;2023-06-10T13:08:40;99876.69;;;25.53;86.39
62942;BME280;49042;47.318;19.874;2023-06-10T13:11:42;99876.31;;;25.62;81.89
62942;BME280;49042;47.318;19.874;2023-06-10T13:14:44;99872.09;;;26.63;77.21
62942;BME280;49042;47.318;19.874;2023-06-10T13:17:46;99872.81;;;27.05;76.22
62942;BME280;49042;47.318;19.874;2023-06-10T13:20:51;99875.16;;;27.13;74.54
62942;BME280;49042;47.318;19.874;2023-06-10T13:23:53;99866.97;;;29.58;59.51
62942;BME280;49042;47.318;19.874;2023-06-10T13:26:55;99877.19;;;30.44;54.82
62942;BME280;49042;47.318;19.874;2023-06-10T13:29:57;99865.63;;;31.29;51.45
62942;BME280;49042;47.318;19.874;2023-06-10T13:32:59;99870.91;;;29.83;52.42
62942;BME280;49042;47.318;19.874;2023-06-10T13:36:02;99871.66;;;29.06;57.98
62942;BME280;49042;47.318;19.874;2023-06-10T13:39:04;99861.00;;;28.88;57.94
62942;BME280;49042;47.318;19.874;2023-06-10T13:42:06;99850.38;;;28.86;59.86
62942;BME280;49042;47.318;19.874;2023-06-10T13:45:09;99857.91;;;30.36;52.71
62942;BME280;49042;47.318;19.874;2023-06-10T13:48:12;99863.87;;;30.27;52.54
62942;BME280;49042;47.318;19.874;2023-06-10T13:51:14;99854.34;;;30.94;47.03
62942;BME280;49042;47.318;19.874;2023-06-10T13:54:15;99859.47;;;29.00;52.84
62942;BME280;49042;47.318;19.874;2023-06-10T13:57:17;99854.41;;;27.56;62.53
62942;BME280;49042;47.318;19.874;2023-06-10T14:00:19;99856.91;;;29.62;58.45
62942;BME280;49042;47.318;19.874;2023-06-10T14:03:20;99854.41;;;27.74;65.08
62942;BME280;49042;47.318;19.874;2023-06-10T14:06:22;99859.16;;;28.38;61.35
62942;BME280;49042;47.318;19.874;2023-06-10T14:09:24;99855.28;;;30.51;57.44
62942;BME280;49042;47.318;19.874;2023-06-10T14:12:25;99855.94;;;32.34;50.58
62942;BME280;49042;47.318;19.874;2023-06-10T14:15:27;99847.44;;;31.05;51.00
62942;BME280;49042;47.318;19.874;2023-06-10T14:18:29;99846.56;;;29.70;56.45
62942;BME280;49042;47.318;19.874;2023-06-10T14:21:30;99852.62;;;29.27;58.53
62942;BME280;49042;47.318;19.874;2023-06-10T14:24:32;99847.44;;;29.07;57.92
62942;BME280;49042;47.318;19.874;2023-06-10T14:27:34;99851.03;;;27.70;66.70
62942;BME280;49042;47.318;19.874;2023-06-10T14:30:36;99846.72;;;27.30;70.46
62942;BME280;49042;47.318;19.874;2023-06-10T14:33:37;99843.56;;;27.95;65.65
62942;BME280;49042;47.318;19.874;2023-06-10T14:36:39;99848.53;;;27.30;68.56
62942;BME280;49042;47.318;19.874;2023-06-10T14:39:41;99845.56;;;27.16;70.36
62942;BME280;49042;47.318;19.874;2023-06-10T14:42:42;99840.28;;;27.34;67.63
62942;BME280;49042;47.318;19.874;2023-06-10T14:45:44;99834.44;;;27.07;70.25
62942;BME280;49042;47.318;19.874;2023-06-10T14:48:46;99834.91;;;27.34;68.74
62942;BME280;49042;47.318;19.874;2023-06-10T14:51:48;99833.06;;;27.72;67.07
62942;BME280;49042;47.318;19.874;2023-06-10T14:54:51;99834.47;;;28.15;64.54
62942;BME280;49042;47.318;19.874;2023-06-10T14:57:53;99835.47;;;28.30;61.78
62942;BME280;49042;47.318;19.874;2023-06-10T15:00:55;99824.31;;;28.38;62.10
62942;BME280;49042;47.318;19.874;2023-06-10T15:03:56;99825.41;;;28.52;58.82
62942;BME280;49042;47.318;19.874;2023-06-10T15:06:58;99828.25;;;27.97;61.83
62942;BME280;49042;47.318;19.874;2023-06-10T15:10:00;99816.28;;;28.38;59.29
62942;BME280;49042;47.318;19.874;2023-06-10T15:13:02;99814.38;;;28.40;58.92
62942;BME280;49042;47.318;19.874;2023-06-10T15:16:03;99822.19;;;28.11;61.72
62942;BME280;49042;47.318;19.874;2023-06-10T15:19:05;99822.19;;;28.11;59.00
62942;BME280;49042;47.318;19.874;2023-06-10T15:22:09;99822.56;;;27.67;61.08
62942;BME280;49042;47.318;19.874;2023-06-10T15:25:13;99825.91;;;26.79;67.36
62942;BME280;49042;47.318;19.874;2023-06-10T15:28:31;99820.78;;;26.74;68.31
62942;BME280;49042;47.318;19.874;2023-06-10T15:31:33;99825.59;;;26.46;66.27
62942;BME280;49042;47.318;19.874;2023-06-10T15:34:34;99828.00;;;26.52;69.18
62942;BME280;49042;47.318;19.874;2023-06-10T15:37:37;99838.19;;;25.81;75.47
62942;BME280;49042;47.318;19.874;2023-06-10T15:40:40;99835.03;;;25.03;84.86
62942;BME280;49042;47.318;19.874;2023-06-10T15:43:42;99843.38;;;24.46;90.22
62942;BME280;49042;47.318;19.874;2023-06-10T15:46:44;99846.25;;;24.14;93.22
62942;BME280;49042;47.318;19.874;2023-06-10T15:49:46;99854.25;;;23.88;98.68
62942;BME280;49042;47.318;19.874;2023-06-10T15:52:48;99845.97;;;23.41;100.00
62942;BME280;49042;47.318;19.874;2023-06-10T15:55:50;99853.12;;;23.39;100.00
62942;BME280;49042;47.318;19.874;2023-06-10T15:58:51;99852.72;;;23.25;100.00